Hovedside
METAR-TAF:

METAR-TAF

Lufthavner :

Air Force Base Hoedspruit - Eastgate Airport

Hoedspruit, Sør-Afrika

breddegrad: 24-21-17S, lengdegrad: 31-03-01E, høyde over havet: 531 m

Gjeldene værobservasjon

Denne rapporten ble laget for 49 minutter siden, klokken 01:00 UTC
Vind 3 kt fra Sør
Temperatur 16°C
Luftfuktighet 72%
Trykk 1027 hPa

METAR: FAHS 140100Z AUTO 19003KT //// // ////// 16/11 Q1027

Tid: 03:49 (01:49 UTC)

Varsel

Denne rapporten ble laget for 16 timer og 49 minutter siden, klokken 09:00 UTC
Varsel gyldig fra 13. klokken 10 UTC til 13. klokken 18 UTC
Vind 3 kt fra skiftende retning
Sikt 10 km eller mer
ingen skyer under 1500 m og ingen bygeskyer

TAF: FAHS 130900Z 1310/1318 VRB03KT CAVOK TX25/1312Z TN16/1318Z

Værobservasjoner og værvarsel for over 4000 flyplasser (METAR- og TAF-rapporter).

Tilgjengelige stasjoner er representert av de røde og gule prikkene på kartet.

Hold musepekeren over prikken for å se navnet på stasjonen.

Klikk så for å se værobservasjoner og -varsler.

For å forandre kartet kan du klikke på den grønne knappen med svart kryss for å zoome inn, på den grønne knappen med strek for å zoome ut, eller på de grønne pilene for å se tilstøtende kart.


METAR-TAF: